Aeroporto :
LOGIN :

Iscrizione | Disclaimer

   EN    FR    IT 

 










Sommario :    VFR   VFR Marginale   IFR   IFR Intensivo   IFR Molto Intensivo
Visibilità : 
Base nubi : 
>= 8 km
>= 3000ft
5 / 8 km
1000 / 3000 ft
1500m / 5 km
500 / 1000 ft
800 / 1500m
200 / 500 ft
< 800m
< 200 ft
Simboli :   Temporali  Nebbia  Neve Forte  Precipitazioni Forti  Vento > 20 kt
SIGMETs :   Varie  Temporali  Ghiacco  Turbolenza  Onda orograficha  Ceneri Vulcaniche






- Altitudine del aeroporto : 287 ft
- Codice IATA : TOE


DTTZ - Nefta - Tozeur

ULTIMO METAR :
  • 280000Z 26006KT CAVOK 13/02 Q1021

METARs OBSOLETI :
  • 272300Z 26006KT CAVOK 14/02 Q1021
  • 272200Z 26007KT CAVOK 14/02 Q1021

TAF TAF DTTZ
Valido dal 28 a 00 ore il 29 a 00 ore UTC


272300Z 2800/2824 26006KT CAVOK
BECMG 2806/2808 VRB03KT
BECMG 2809/2811 25008KT



MetMap, La meteo Aeronautica in un colpo d'occhio ! - Copyright ORBIFLY Dicembre 2007 - Disclaimer

ORBIFLY MET'MAP TEAM :

Programmazione e sviluppo : Alexandra Zaïnal
Concezione : Baudouin d'Aumeries
Aiuto per la programmazione : Marc-Olivier Méhu
Supporto tecnico e logistico : Manuel Goepfert
Aiuto per la traduzione : Arnaldo La Scala

Contatto : metmap@orbifly.com




FONTI E CREDITI :

   NOAA